sensor_id;sensor_type;location;lat;lon;timestamp;P1;P2;P0
31330;PMS5003;34067;39.548;-76.088;2023-11-18T00:00:28;78;78;
31330;PMS5003;34067;39.548;-76.088;2023-11-18T00:02:56;1;1;
31330;PMS5003;34067;39.548;-76.088;2023-11-18T00:05:23;2;1;
31330;PMS5003;34067;39.548;-76.088;2023-11-18T00:07:51;2;2;
31330;PMS5003;34067;39.548;-76.088;2023-11-18T00:10:20;3;2;
31330;PMS5003;34067;39.548;-76.088;2023-11-18T00:12:49;2;2;
31330;PMS5003;34067;39.548;-76.088;2023-11-18T00:15:16;2;2;
31330;PMS5003;34067;39.548;-76.088;2023-11-18T00:17:44;5;3;
31330;PMS5003;34067;39.548;-76.088;2023-11-18T00:20:12;3;3;
31330;PMS5003;34067;39.548;-76.088;2023-11-18T00:22:40;4;4;
31330;PMS5003;34067;39.548;-76.088;2023-11-18T00:25:09;20;20;
31330;PMS5003;34067;39.548;-76.088;2023-11-18T00:27:37;18;18;
31330;PMS5003;34067;39.548;-76.088;2023-11-18T00:30:05;16;15;
31330;PMS5003;34067;39.548;-76.088;2023-11-18T00:32:34;12;12;
31330;PMS5003;34067;39.548;-76.088;2023-11-18T00:35:02;7;7;
31330;PMS5003;34067;39.548;-76.088;2023-11-18T00:37:30;2;2;
31330;PMS5003;34067;39.548;-76.088;2023-11-18T00:39:58;5;5;
31330;PMS5003;34067;39.548;-76.088;2023-11-18T00:42:26;5;5;
31330;PMS5003;34067;39.548;-76.088;2023-11-18T00:44:54;5;5;
31330;PMS5003;34067;39.548;-76.088;2023-11-18T00:47:22;4;3;
31330;PMS5003;34067;39.548;-76.088;2023-11-18T00:49:50;7;5;
31330;PMS5003;34067;39.548;-76.088;2023-11-18T00:52:18;5;4;
31330;PMS5003;34067;39.548;-76.088;2023-11-18T00:54:45;3;3;
31330;PMS5003;34067;39.548;-76.088;2023-11-18T00:57:14;5;4;
31330;PMS5003;34067;39.548;-76.088;2023-11-18T00:59:42;4;3;
31330;PMS5003;34067;39.548;-76.088;2023-11-18T01:02:10;5;4;
31330;PMS5003;34067;39.548;-76.088;2023-11-18T01:04:37;4;4;
31330;PMS5003;34067;39.548;-76.088;2023-11-18T01:07:05;7;6;
31330;PMS5003;34067;39.548;-76.088;2023-11-18T01:09:34;6;6;
31330;PMS5003;34067;39.548;-76.088;2023-11-18T01:12:03;6;5;
31330;PMS5003;34067;39.548;-76.088;2023-11-18T01:14:31;5;5;
31330;PMS5003;34067;39.548;-76.088;2023-11-18T01:16:59;7;5;
31330;PMS5003;34067;39.548;-76.088;2023-11-18T01:19:27;7;7;
31330;PMS5003;34067;39.548;-76.088;2023-11-18T01:21:55;5;5;
31330;PMS5003;34067;39.548;-76.088;2023-11-18T01:24:23;6;6;
31330;PMS5003;34067;39.548;-76.088;2023-11-18T01:26:51;15;12;
31330;PMS5003;34067;39.548;-76.088;2023-11-18T01:29:19;39;38;
31330;PMS5003;34067;39.548;-76.088;2023-11-18T01:31:47;14;14;
31330;PMS5003;34067;39.548;-76.088;2023-11-18T01:34:15;38;36;
31330;PMS5003;34067;39.548;-76.088;2023-11-18T01:36:43;74;74;
31330;PMS5003;34067;39.548;-76.088;2023-11-18T01:39:11;63;62;
31330;PMS5003;34067;39.548;-76.088;2023-11-18T01:41:39;49;46;
31330;PMS5003;34067;39.548;-76.088;2023-11-18T01:44:07;35;35;
31330;PMS5003;34067;39.548;-76.088;2023-11-18T01:46:35;34;34;
31330;PMS5003;34067;39.548;-76.088;2023-11-18T01:49:03;36;34;
31330;PMS5003;34067;39.548;-76.088;2023-11-18T01:51:31;40;39;
31330;PMS5003;34067;39.548;-76.088;2023-11-18T01:53:59;40;40;
31330;PMS5003;34067;39.548;-76.088;2023-11-18T01:56:28;8;8;
31330;PMS5003;34067;39.548;-76.088;2023-11-18T01:58:56;51;51;
31330;PMS5003;34067;39.548;-76.088;2023-11-18T02:01:24;44;44;
31330;PMS5003;34067;39.548;-76.088;2023-11-18T02:03:53;52;52;
31330;PMS5003;34067;39.548;-76.088;2023-11-18T02:06:21;69;69;
31330;PMS5003;34067;39.548;-76.088;2023-11-18T02:08:49;49;49;
31330;PMS5003;34067;39.548;-76.088;2023-11-18T02:11:28;39;36;
31330;PMS5003;34067;39.548;-76.088;2023-11-18T02:14:01;30;30;
31330;PMS5003;34067;39.548;-76.088;2023-11-18T02:16:31;30;30;
31330;PMS5003;34067;39.548;-76.088;2023-11-18T02:18:59;27;25;
31330;PMS5003;34067;39.548;-76.088;2023-11-18T02:21:29;20;20;
31330;PMS5003;34067;39.548;-76.088;2023-11-18T02:23:59;21;20;
31330;PMS5003;34067;39.548;-76.088;2023-11-18T02:26:27;17;17;
31330;PMS5003;34067;39.548;-76.088;2023-11-18T02:28:55;15;14;
31330;PMS5003;34067;39.548;-76.088;2023-11-18T02:31:25;15;15;
31330;PMS5003;34067;39.548;-76.088;2023-11-18T02:34:00;11;11;
31330;PMS5003;34067;39.548;-76.088;2023-11-18T02:36:33;15;15;
31330;PMS5003;34067;39.548;-76.088;2023-11-18T02:39:08;15;15;
31330;PMS5003;34067;39.548;-76.088;2023-11-18T02:41:39;19;19;
31330;PMS5003;34067;39.548;-76.088;2023-11-18T02:44:08;20;20;
31330;PMS5003;34067;39.548;-76.088;2023-11-18T02:46:36;17;17;
31330;PMS5003;34067;39.548;-76.088;2023-11-18T02:49:07;14;14;
31330;PMS5003;34067;39.548;-76.088;2023-11-18T02:51:35;12;10;
31330;PMS5003;34067;39.548;-76.088;2023-11-18T02:54:03;11;10;
31330;PMS5003;34067;39.548;-76.088;2023-11-18T02:56:31;10;9;
31330;PMS5003;34067;39.548;-76.088;2023-11-18T02:58:59;8;8;
31330;PMS5003;34067;39.548;-76.088;2023-11-18T03:01:27;7;7;
31330;PMS5003;34067;39.548;-76.088;2023-11-18T03:03:55;10;8;
31330;PMS5003;34067;39.548;-76.088;2023-11-18T03:06:23;14;11;
31330;PMS5003;34067;39.548;-76.088;2023-11-18T03:08:51;12;12;
31330;PMS5003;34067;39.548;-76.088;2023-11-18T03:11:18;10;9;
31330;PMS5003;34067;39.548;-76.088;2023-11-18T03:13:46;37;35;
31330;PMS5003;34067;39.548;-76.088;2023-11-18T03:16:14;113;112;
31330;PMS5003;34067;39.548;-76.088;2023-11-18T03:18:43;86;84;
31330;PMS5003;34067;39.548;-76.088;2023-11-18T03:21:11;19;19;
31330;PMS5003;34067;39.548;-76.088;2023-11-18T03:23:39;111;111;
31330;PMS5003;34067;39.548;-76.088;2023-11-18T03:26:07;100;99;
31330;PMS5003;34067;39.548;-76.088;2023-11-18T03:28:35;235;234;
31330;PMS5003;34067;39.548;-76.088;2023-11-18T03:31:04;15;15;
31330;PMS5003;34067;39.548;-76.088;2023-11-18T03:33:33;24;23;
31330;PMS5003;34067;39.548;-76.088;2023-11-18T03:36:01;151;151;
31330;PMS5003;34067;39.548;-76.088;2023-11-18T03:38:29;19;19;
31330;PMS5003;34067;39.548;-76.088;2023-11-18T03:40:57;14;13;
31330;PMS5003;34067;39.548;-76.088;2023-11-18T03:43:25;8;8;
31330;PMS5003;34067;39.548;-76.088;2023-11-18T03:45:52;25;24;
31330;PMS5003;34067;39.548;-76.088;2023-11-18T03:48:20;55;54;
31330;PMS5003;34067;39.548;-76.088;2023-11-18T03:50:48;59;57;
31330;PMS5003;34067;39.548;-76.088;2023-11-18T03:53:16;11;10;
31330;PMS5003;34067;39.548;-76.088;2023-11-18T03:55:44;152;151;
31330;PMS5003;34067;39.548;-76.088;2023-11-18T03:58:12;321;321;
31330;PMS5003;34067;39.548;-76.088;2023-11-18T04:00:40;181;181;
31330;PMS5003;34067;39.548;-76.088;2023-11-18T04:03:08;9;8;
31330;PMS5003;34067;39.548;-76.088;2023-11-18T04:05:36;282;282;
31330;PMS5003;34067;39.548;-76.088;2023-11-18T04:08:04;192;192;
31330;PMS5003;34067;39.548;-76.088;2023-11-18T04:10:32;33;33;
31330;PMS5003;34067;39.548;-76.088;2023-11-18T04:12:59;243;243;
31330;PMS5003;34067;39.548;-76.088;2023-11-18T04:15:27;238;238;
31330;PMS5003;34067;39.548;-76.088;2023-11-18T04:17:55;228;227;
31330;PMS5003;34067;39.548;-76.088;2023-11-18T04:20:23;226;225;
31330;PMS5003;34067;39.548;-76.088;2023-11-18T04:22:51;223;222;
31330;PMS5003;34067;39.548;-76.088;2023-11-18T04:25:19;218;218;
31330;PMS5003;34067;39.548;-76.088;2023-11-18T04:27:46;222;221;
31330;PMS5003;34067;39.548;-76.088;2023-11-18T04:30:14;245;242;
31330;PMS5003;34067;39.548;-76.088;2023-11-18T04:32:42;241;240;
31330;PMS5003;34067;39.548;-76.088;2023-11-18T04:35:10;232;232;
31330;PMS5003;34067;39.548;-76.088;2023-11-18T04:37:37;233;233;
31330;PMS5003;34067;39.548;-76.088;2023-11-18T04:40:06;232;230;
31330;PMS5003;34067;39.548;-76.088;2023-11-18T04:42:34;235;233;
31330;PMS5003;34067;39.548;-76.088;2023-11-18T04:45:02;208;207;
31330;PMS5003;34067;39.548;-76.088;2023-11-18T04:47:30;207;207;
31330;PMS5003;34067;39.548;-76.088;2023-11-18T04:49:58;209;209;
31330;PMS5003;34067;39.548;-76.088;2023-11-18T04:52:26;236;235;
31330;PMS5003;34067;39.548;-76.088;2023-11-18T04:54:53;225;223;
31330;PMS5003;34067;39.548;-76.088;2023-11-18T04:57:21;151;150;
31330;PMS5003;34067;39.548;-76.088;2023-11-18T04:59:49;132;132;
31330;PMS5003;34067;39.548;-76.088;2023-11-18T05:02:17;167;166;
31330;PMS5003;34067;39.548;-76.088;2023-11-18T05:04:44;178;177;
31330;PMS5003;34067;39.548;-76.088;2023-11-18T05:07:13;31;31;
31330;PMS5003;34067;39.548;-76.088;2023-11-18T05:09:41;88;88;
31330;PMS5003;34067;39.548;-76.088;2023-11-18T05:12:09;68;66;
31330;PMS5003;34067;39.548;-76.088;2023-11-18T05:14:36;66;65;
31330;PMS5003;34067;39.548;-76.088;2023-11-18T05:17:04;46;46;
31330;PMS5003;34067;39.548;-76.088;2023-11-18T05:19:32;70;70;
31330;PMS5003;34067;39.548;-76.088;2023-11-18T05:22:01;75;75;
31330;PMS5003;34067;39.548;-76.088;2023-11-18T05:24:29;28;28;
31330;PMS5003;34067;39.548;-76.088;2023-11-18T05:26:57;68;68;
31330;PMS5003;34067;39.548;-76.088;2023-11-18T05:29:26;88;88;
31330;PMS5003;34067;39.548;-76.088;2023-11-18T05:31:54;102;102;
31330;PMS5003;34067;39.548;-76.088;2023-11-18T05:34:22;72;71;
31330;PMS5003;34067;39.548;-76.088;2023-11-18T05:36:50;118;117;
31330;PMS5003;34067;39.548;-76.088;2023-11-18T05:39:17;207;205;
31330;PMS5003;34067;39.548;-76.088;2023-11-18T05:41:45;137;136;
31330;PMS5003;34067;39.548;-76.088;2023-11-18T05:44:13;69;68;
31330;PMS5003;34067;39.548;-76.088;2023-11-18T05:46:41;49;49;
31330;PMS5003;34067;39.548;-76.088;2023-11-18T05:49:09;21;21;
31330;PMS5003;34067;39.548;-76.088;2023-11-18T05:51:37;12;12;
31330;PMS5003;34067;39.548;-76.088;2023-11-18T05:54:05;34;34;
31330;PMS5003;34067;39.548;-76.088;2023-11-18T05:56:33;29;27;
31330;PMS5003;34067;39.548;-76.088;2023-11-18T05:59:01;183;181;
31330;PMS5003;34067;39.548;-76.088;2023-11-18T06:03:09;30;30;
31330;PMS5003;34067;39.548;-76.088;2023-11-18T06:05:37;46;46;
31330;PMS5003;34067;39.548;-76.088;2023-11-18T06:08:05;61;60;
31330;PMS5003;34067;39.548;-76.088;2023-11-18T06:10:33;219;218;
31330;PMS5003;34067;39.548;-76.088;2023-11-18T06:13:01;45;45;
31330;PMS5003;34067;39.548;-76.088;2023-11-18T06:15:29;52;51;
31330;PMS5003;34067;39.548;-76.088;2023-11-18T06:17:58;24;23;
31330;PMS5003;34067;39.548;-76.088;2023-11-18T06:20:25;28;27;
31330;PMS5003;34067;39.548;-76.088;2023-11-18T06:22:53;34;33;
31330;PMS5003;34067;39.548;-76.088;2023-11-18T06:25:21;22;22;
31330;PMS5003;34067;39.548;-76.088;2023-11-18T06:27:49;25;24;
31330;PMS5003;34067;39.548;-76.088;2023-11-18T06:30:16;19;18;
31330;PMS5003;34067;39.548;-76.088;2023-11-18T06:32:44;48;47;
31330;PMS5003;34067;39.548;-76.088;2023-11-18T06:35:12;27;25;
31330;PMS5003;34067;39.548;-76.088;2023-11-18T06:37:40;38;36;
31330;PMS5003;34067;39.548;-76.088;2023-11-18T06:40:08;18;18;
31330;PMS5003;34067;39.548;-76.088;2023-11-18T06:42:37;26;26;
31330;PMS5003;34067;39.548;-76.088;2023-11-18T06:45:05;33;32;
31330;PMS5003;34067;39.548;-76.088;2023-11-18T06:47:33;28;26;
31330;PMS5003;34067;39.548;-76.088;2023-11-18T06:50:01;32;32;
31330;PMS5003;34067;39.548;-76.088;2023-11-18T06:52:29;27;27;
31330;PMS5003;34067;39.548;-76.088;2023-11-18T06:54:56;43;42;
31330;PMS5003;34067;39.548;-76.088;2023-11-18T06:57:24;28;26;
31330;PMS5003;34067;39.548;-76.088;2023-11-18T06:59:52;38;36;
31330;PMS5003;34067;39.548;-76.088;2023-11-18T07:02:20;17;16;
31330;PMS5003;34067;39.548;-76.088;2023-11-18T07:04:47;30;30;
31330;PMS5003;34067;39.548;-76.088;2023-11-18T07:07:15;29;29;
31330;PMS5003;34067;39.548;-76.088;2023-11-18T07:09:43;30;29;
31330;PMS5003;34067;39.548;-76.088;2023-11-18T07:12:11;24;24;
31330;PMS5003;34067;39.548;-76.088;2023-11-18T07:14:39;15;15;
31330;PMS5003;34067;39.548;-76.088;2023-11-18T07:17:07;21;20;
31330;PMS5003;34067;39.548;-76.088;2023-11-18T07:19:34;25;24;
31330;PMS5003;34067;39.548;-76.088;2023-11-18T07:22:03;22;22;
31330;PMS5003;34067;39.548;-76.088;2023-11-18T07:24:31;25;24;
31330;PMS5003;34067;39.548;-76.088;2023-11-18T07:26:59;22;22;
31330;PMS5003;34067;39.548;-76.088;2023-11-18T07:29:27;37;37;
31330;PMS5003;34067;39.548;-76.088;2023-11-18T07:31:55;25;24;
31330;PMS5003;34067;39.548;-76.088;2023-11-18T07:34:23;31;31;
31330;PMS5003;34067;39.548;-76.088;2023-11-18T07:36:50;24;24;
31330;PMS5003;34067;39.548;-76.088;2023-11-18T07:39:18;25;22;
31330;PMS5003;34067;39.548;-76.088;2023-11-18T07:41:46;27;25;
31330;PMS5003;34067;39.548;-76.088;2023-11-18T07:44:14;26;26;
31330;PMS5003;34067;39.548;-76.088;2023-11-18T07:46:41;20;19;
31330;PMS5003;34067;39.548;-76.088;2023-11-18T07:49:09;47;47;
31330;PMS5003;34067;39.548;-76.088;2023-11-18T07:51:37;51;50;
31330;PMS5003;34067;39.548;-76.088;2023-11-18T07:54:05;23;23;
31330;PMS5003;34067;39.548;-76.088;2023-11-18T07:56:33;22;21;
31330;PMS5003;34067;39.548;-76.088;2023-11-18T07:59:01;18;15;
31330;PMS5003;34067;39.548;-76.088;2023-11-18T08:01:29;50;49;
31330;PMS5003;34067;39.548;-76.088;2023-11-18T08:03:57;23;23;
31330;PMS5003;34067;39.548;-76.088;2023-11-18T08:06:25;33;33;
31330;PMS5003;34067;39.548;-76.088;2023-11-18T08:08:53;39;37;
31330;PMS5003;34067;39.548;-76.088;2023-11-18T08:11:21;27;27;
31330;PMS5003;34067;39.548;-76.088;2023-11-18T08:13:48;30;29;
31330;PMS5003;34067;39.548;-76.088;2023-11-18T08:16:16;38;37;
31330;PMS5003;34067;39.548;-76.088;2023-11-18T08:18:43;48;48;
31330;PMS5003;34067;39.548;-76.088;2023-11-18T08:21:11;55;55;
31330;PMS5003;34067;39.548;-76.088;2023-11-18T08:23:39;36;35;
31330;PMS5003;34067;39.548;-76.088;2023-11-18T08:26:08;38;37;
31330;PMS5003;34067;39.548;-76.088;2023-11-18T08:28:37;45;44;
31330;PMS5003;34067;39.548;-76.088;2023-11-18T08:31:05;69;68;
31330;PMS5003;34067;39.548;-76.088;2023-11-18T08:33:33;91;91;
31330;PMS5003;34067;39.548;-76.088;2023-11-18T08:36:01;73;73;
31330;PMS5003;34067;39.548;-76.088;2023-11-18T08:38:28;79;77;
31330;PMS5003;34067;39.548;-76.088;2023-11-18T08:40:56;155;153;
31330;PMS5003;34067;39.548;-76.088;2023-11-18T08:43:24;107;107;
31330;PMS5003;34067;39.548;-76.088;2023-11-18T08:45:52;76;75;
31330;PMS5003;34067;39.548;-76.088;2023-11-18T08:48:20;61;60;
31330;PMS5003;34067;39.548;-76.088;2023-11-18T08:50:48;68;68;
31330;PMS5003;34067;39.548;-76.088;2023-11-18T08:53:16;71;70;
31330;PMS5003;34067;39.548;-76.088;2023-11-18T08:55:44;75;74;
31330;PMS5003;34067;39.548;-76.088;2023-11-18T08:58:12;33;33;
31330;PMS5003;34067;39.548;-76.088;2023-11-18T09:00:40;51;51;
31330;PMS5003;34067;39.548;-76.088;2023-11-18T09:03:08;83;82;
31330;PMS5003;34067;39.548;-76.088;2023-11-18T09:05:36;113;113;
31330;PMS5003;34067;39.548;-76.088;2023-11-18T09:08:05;219;218;
31330;PMS5003;34067;39.548;-76.088;2023-11-18T09:10:32;10;10;
31330;PMS5003;34067;39.548;-76.088;2023-11-18T09:13:01;13;13;
31330;PMS5003;34067;39.548;-76.088;2023-11-18T09:15:29;11;11;
31330;PMS5003;34067;39.548;-76.088;2023-11-18T09:17:57;11;11;
31330;PMS5003;34067;39.548;-76.088;2023-11-18T09:20:25;11;10;
31330;PMS5003;34067;39.548;-76.088;2023-11-18T09:22:53;13;13;
31330;PMS5003;34067;39.548;-76.088;2023-11-18T09:25:21;12;12;
31330;PMS5003;34067;39.548;-76.088;2023-11-18T09:27:50;15;13;
31330;PMS5003;34067;39.548;-76.088;2023-11-18T09:30:18;16;15;
31330;PMS5003;34067;39.548;-76.088;2023-11-18T09:32:46;14;13;
31330;PMS5003;34067;39.548;-76.088;2023-11-18T09:35:14;12;12;
31330;PMS5003;34067;39.548;-76.088;2023-11-18T09:37:42;13;12;
31330;PMS5003;34067;39.548;-76.088;2023-11-18T09:40:13;13;12;
31330;PMS5003;34067;39.548;-76.088;2023-11-18T09:42:41;16;15;
31330;PMS5003;34067;39.548;-76.088;2023-11-18T09:45:09;14;13;
31330;PMS5003;34067;39.548;-76.088;2023-11-18T09:47:37;12;11;
31330;PMS5003;34067;39.548;-76.088;2023-11-18T09:50:10;13;13;
31330;PMS5003;34067;39.548;-76.088;2023-11-18T09:52:41;11;11;
31330;PMS5003;34067;39.548;-76.088;2023-11-18T09:55:16;15;14;
31330;PMS5003;34067;39.548;-76.088;2023-11-18T09:57:55;14;12;
31330;PMS5003;34067;39.548;-76.088;2023-11-18T10:00:28;14;13;
31330;PMS5003;34067;39.548;-76.088;2023-11-18T10:02:58;12;11;
31330;PMS5003;34067;39.548;-76.088;2023-11-18T10:05:26;14;13;
31330;PMS5003;34067;39.548;-76.088;2023-11-18T10:07:56;17;17;
31330;PMS5003;34067;39.548;-76.088;2023-11-18T10:10:24;14;13;
31330;PMS5003;34067;39.548;-76.088;2023-11-18T10:12:52;12;11;
31330;PMS5003;34067;39.548;-76.088;2023-11-18T10:15:21;14;13;
31330;PMS5003;34067;39.548;-76.088;2023-11-18T10:17:50;17;15;
31330;PMS5003;34067;39.548;-76.088;2023-11-18T10:20:18;12;11;
31330;PMS5003;34067;39.548;-76.088;2023-11-18T10:22:46;11;11;
31330;PMS5003;34067;39.548;-76.088;2023-11-18T10:25:14;10;10;
31330;PMS5003;34067;39.548;-76.088;2023-11-18T10:27:51;14;12;
31330;PMS5003;34067;39.548;-76.088;2023-11-18T10:30:19;13;12;
31330;PMS5003;34067;39.548;-76.088;2023-11-18T10:32:56;13;11;
31330;PMS5003;34067;39.548;-76.088;2023-11-18T10:35:25;12;12;
31330;PMS5003;34067;39.548;-76.088;2023-11-18T10:37:53;13;13;
31330;PMS5003;34067;39.548;-76.088;2023-11-18T10:40:22;13;11;
31330;PMS5003;34067;39.548;-76.088;2023-11-18T10:42:51;14;13;
31330;PMS5003;34067;39.548;-76.088;2023-11-18T10:45:23;15;13;
31330;PMS5003;34067;39.548;-76.088;2023-11-18T10:47:51;12;12;
31330;PMS5003;34067;39.548;-76.088;2023-11-18T10:50:19;11;10;
31330;PMS5003;34067;39.548;-76.088;2023-11-18T10:52:47;11;11;
31330;PMS5003;34067;39.548;-76.088;2023-11-18T10:55:16;13;13;
31330;PMS5003;34067;39.548;-76.088;2023-11-18T10:57:44;13;12;
31330;PMS5003;34067;39.548;-76.088;2023-11-18T11:00:12;12;12;
31330;PMS5003;34067;39.548;-76.088;2023-11-18T11:02:41;17;15;
31330;PMS5003;34067;39.548;-76.088;2023-11-18T11:05:09;19;16;
31330;PMS5003;34067;39.548;-76.088;2023-11-18T11:07:37;17;14;
31330;PMS5003;34067;39.548;-76.088;2023-11-18T11:10:06;17;16;
31330;PMS5003;34067;39.548;-76.088;2023-11-18T11:12:35;18;15;
31330;PMS5003;34067;39.548;-76.088;2023-11-18T11:15:12;17;16;
31330;PMS5003;34067;39.548;-76.088;2023-11-18T11:17:44;18;15;
31330;PMS5003;34067;39.548;-76.088;2023-11-18T11:20:19;20;18;
31330;PMS5003;34067;39.548;-76.088;2023-11-18T11:22:51;17;16;
31330;PMS5003;34067;39.548;-76.088;2023-11-18T11:25:29;20;19;
31330;PMS5003;34067;39.548;-76.088;2023-11-18T11:28:05;19;18;
31330;PMS5003;34067;39.548;-76.088;2023-11-18T11:30:40;20;19;
31330;PMS5003;34067;39.548;-76.088;2023-11-18T11:33:14;21;20;
31330;PMS5003;34067;39.548;-76.088;2023-11-18T11:35:53;25;24;
31330;PMS5003;34067;39.548;-76.088;2023-11-18T11:38:23;25;23;
31330;PMS5003;34067;39.548;-76.088;2023-11-18T11:40:53;25;22;
31330;PMS5003;34067;39.548;-76.088;2023-11-18T11:43:21;31;28;
31330;PMS5003;34067;39.548;-76.088;2023-11-18T11:45:50;38;35;
31330;PMS5003;34067;39.548;-76.088;2023-11-18T11:48:19;32;29;
31330;PMS5003;34067;39.548;-76.088;2023-11-18T11:50:54;36;34;
31330;PMS5003;34067;39.548;-76.088;2023-11-18T11:53:35;37;35;
31330;PMS5003;34067;39.548;-76.088;2023-11-18T11:56:06;26;24;
31330;PMS5003;34067;39.548;-76.088;2023-11-18T11:58:35;19;17;
31330;PMS5003;34067;39.548;-76.088;2023-11-18T12:01:14;24;23;
31330;PMS5003;34067;39.548;-76.088;2023-11-18T12:03:47;19;16;
31330;PMS5003;34067;39.548;-76.088;2023-11-18T12:06:18;12;11;
31330;PMS5003;34067;39.548;-76.088;2023-11-18T12:08:47;11;11;
31330;PMS5003;34067;39.548;-76.088;2023-11-18T12:11:15;6;6;
31330;PMS5003;34067;39.548;-76.088;2023-11-18T12:13:59;5;5;
31330;PMS5003;34067;39.548;-76.088;2023-11-18T12:16:41;5;5;
31330;PMS5003;34067;39.548;-76.088;2023-11-18T12:19:33;5;5;
31330;PMS5003;34067;39.548;-76.088;2023-11-18T12:22:02;4;4;
31330;PMS5003;34067;39.548;-76.088;2023-11-18T12:24:30;3;3;
31330;PMS5003;34067;39.548;-76.088;2023-11-18T12:26:58;5;5;
31330;PMS5003;34067;39.548;-76.088;2023-11-18T12:29:30;2;2;
31330;PMS5003;34067;39.548;-76.088;2023-11-18T12:31:58;3;3;
31330;PMS5003;34067;39.548;-76.088;2023-11-18T12:34:49;5;4;
31330;PMS5003;34067;39.548;-76.088;2023-11-18T12:37:26;1;1;
31330;PMS5003;34067;39.548;-76.088;2023-11-18T12:40:19;9;9;
31330;PMS5003;34067;39.548;-76.088;2023-11-18T12:43:03;8;8;
31330;PMS5003;34067;39.548;-76.088;2023-11-18T12:46:46;49;49;
31330;PMS5003;34067;39.548;-76.088;2023-11-18T12:49:16;1;1;
31330;PMS5003;34067;39.548;-76.088;2023-11-18T12:51:44;1;1;
31330;PMS5003;34067;39.548;-76.088;2023-11-18T12:54:12;1;1;
31330;PMS5003;34067;39.548;-76.088;2023-11-18T12:56:40;1;1;
31330;PMS5003;34067;39.548;-76.088;2023-11-18T12:59:08;1;1;
31330;PMS5003;34067;39.548;-76.088;2023-11-18T13:01:36;0;0;
31330;PMS5003;34067;39.548;-76.088;2023-11-18T13:04:04;0;0;
31330;PMS5003;34067;39.548;-76.088;2023-11-18T13:06:32;1;0;
31330;PMS5003;34067;39.548;-76.088;2023-11-18T13:09:00;0;0;
31330;PMS5003;34067;39.548;-76.088;2023-11-18T13:11:28;0;0;
31330;PMS5003;34067;39.548;-76.088;2023-11-18T13:13:56;0;0;
31330;PMS5003;34067;39.548;-76.088;2023-11-18T13:16:25;0;0;
31330;PMS5003;34067;39.548;-76.088;2023-11-18T13:18:52;1;1;
31330;PMS5003;34067;39.548;-76.088;2023-11-18T13:21:21;0;0;
31330;PMS5003;34067;39.548;-76.088;2023-11-18T13:23:49;1;0;
31330;PMS5003;34067;39.548;-76.088;2023-11-18T13:26:19;1;1;
31330;PMS5003;34067;39.548;-76.088;2023-11-18T13:28:47;0;0;
31330;PMS5003;34067;39.548;-76.088;2023-11-18T13:31:16;0;0;
31330;PMS5003;34067;39.548;-76.088;2023-11-18T13:33:46;1;1;
31330;PMS5003;34067;39.548;-76.088;2023-11-18T13:36:14;1;0;
31330;PMS5003;34067;39.548;-76.088;2023-11-18T13:38:42;2;1;
31330;PMS5003;34067;39.548;-76.088;2023-11-18T13:41:11;2;1;
31330;PMS5003;34067;39.548;-76.088;2023-11-18T13:43:42;1;1;
31330;PMS5003;34067;39.548;-76.088;2023-11-18T13:46:11;2;2;
31330;PMS5003;34067;39.548;-76.088;2023-11-18T13:48:40;1;1;
31330;PMS5003;34067;39.548;-76.088;2023-11-18T13:51:08;0;0;
31330;PMS5003;34067;39.548;-76.088;2023-11-18T13:53:37;1;1;
31330;PMS5003;34067;39.548;-76.088;2023-11-18T13:56:06;1;1;
31330;PMS5003;34067;39.548;-76.088;2023-11-18T13:58:35;1;1;
31330;PMS5003;34067;39.548;-76.088;2023-11-18T14:01:03;1;1;
31330;PMS5003;34067;39.548;-76.088;2023-11-18T14:03:32;1;1;
31330;PMS5003;34067;39.548;-76.088;2023-11-18T14:06:00;1;0;
31330;PMS5003;34067;39.548;-76.088;2023-11-18T14:08:28;3;3;
31330;PMS5003;34067;39.548;-76.088;2023-11-18T14:10:56;1;1;
31330;PMS5003;34067;39.548;-76.088;2023-11-18T14:13:24;1;1;
31330;PMS5003;34067;39.548;-76.088;2023-11-18T14:15:52;1;1;
31330;PMS5003;34067;39.548;-76.088;2023-11-18T14:18:21;1;1;
31330;PMS5003;34067;39.548;-76.088;2023-11-18T14:20:49;2;1;
31330;PMS5003;34067;39.548;-76.088;2023-11-18T14:23:17;1;1;
31330;PMS5003;34067;39.548;-76.088;2023-11-18T14:25:45;1;1;
31330;PMS5003;34067;39.548;-76.088;2023-11-18T14:28:13;1;1;
31330;PMS5003;34067;39.548;-76.088;2023-11-18T14:30:41;1;1;
31330;PMS5003;34067;39.548;-76.088;2023-11-18T14:33:10;1;1;
31330;PMS5003;34067;39.548;-76.088;2023-11-18T14:35:38;1;1;
31330;PMS5003;34067;39.548;-76.088;2023-11-18T14:38:06;3;2;
31330;PMS5003;34067;39.548;-76.088;2023-11-18T14:40:34;3;3;
31330;PMS5003;34067;39.548;-76.088;2023-11-18T14:43:02;1;1;
31330;PMS5003;34067;39.548;-76.088;2023-11-18T14:45:30;2;2;
31330;PMS5003;34067;39.548;-76.088;2023-11-18T14:47:58;3;3;
31330;PMS5003;34067;39.548;-76.088;2023-11-18T14:50:27;2;2;
31330;PMS5003;34067;39.548;-76.088;2023-11-18T14:52:55;2;1;
31330;PMS5003;34067;39.548;-76.088;2023-11-18T14:55:23;2;2;
31330;PMS5003;34067;39.548;-76.088;2023-11-18T14:57:51;3;3;
31330;PMS5003;34067;39.548;-76.088;2023-11-18T15:00:20;2;2;
31330;PMS5003;34067;39.548;-76.088;2023-11-18T15:02:48;2;2;
31330;PMS5003;34067;39.548;-76.088;2023-11-18T15:05:17;2;2;
31330;PMS5003;34067;39.548;-76.088;2023-11-18T15:07:46;3;2;
31330;PMS5003;34067;39.548;-76.088;2023-11-18T15:10:15;4;4;
31330;PMS5003;34067;39.548;-76.088;2023-11-18T15:12:43;3;3;
31330;PMS5003;34067;39.548;-76.088;2023-11-18T15:15:11;2;2;
31330;PMS5003;34067;39.548;-76.088;2023-11-18T15:17:39;3;2;
31330;PMS5003;34067;39.548;-76.088;2023-11-18T15:20:08;2;2;
31330;PMS5003;34067;39.548;-76.088;2023-11-18T15:22:36;3;3;
31330;PMS5003;34067;39.548;-76.088;2023-11-18T15:25:04;3;3;
31330;PMS5003;34067;39.548;-76.088;2023-11-18T15:27:32;4;4;
31330;PMS5003;34067;39.548;-76.088;2023-11-18T15:30:00;3;3;
31330;PMS5003;34067;39.548;-76.088;2023-11-18T15:32:28;3;3;
31330;PMS5003;34067;39.548;-76.088;2023-11-18T15:34:57;3;2;
31330;PMS5003;34067;39.548;-76.088;2023-11-18T15:37:25;2;2;
31330;PMS5003;34067;39.548;-76.088;2023-11-18T15:39:53;3;3;
31330;PMS5003;34067;39.548;-76.088;2023-11-18T15:42:21;3;3;
31330;PMS5003;34067;39.548;-76.088;2023-11-18T15:44:49;4;3;
31330;PMS5003;34067;39.548;-76.088;2023-11-18T15:47:18;3;3;
31330;PMS5003;34067;39.548;-76.088;2023-11-18T15:49:46;2;2;
31330;PMS5003;34067;39.548;-76.088;2023-11-18T15:52:14;3;3;
31330;PMS5003;34067;39.548;-76.088;2023-11-18T15:54:42;2;2;
31330;PMS5003;34067;39.548;-76.088;2023-11-18T15:57:10;4;3;
31330;PMS5003;34067;39.548;-76.088;2023-11-18T15:59:39;3;3;
31330;PMS5003;34067;39.548;-76.088;2023-11-18T16:02:07;3;3;
31330;PMS5003;34067;39.548;-76.088;2023-11-18T16:04:35;3;3;
31330;PMS5003;34067;39.548;-76.088;2023-11-18T16:07:03;4;3;